Nyk Olympus — 3EOS7 — position and weather

sailwx.info

Track history (hours):
 
Tides and Currents Weather Stations Pressure Air Temp Water Temp Dewpoint Dewpoint Depression Visibility Wind Speed Wind Dir Waves Ship Positions

Nyk Olympus

Last reported at 2016-May-02 12:33 UTC. Time now 2016-May-02 12:33 UTC.
Position N 36°52' W 010°59'.

Length 335 m; draft 11.8 m.

Type: Other ship. MMSI: 372478000.

Date/timePositionNaut miles runAvg speedWind from/ knotsBaromVisibWave heightAir tempDewpointWater temp
2016-May-02 12:33N 36°52' W 010°59'2018.7
2016-May-02 11:28N 36°44' W 010°35'2318.9
2016-May-02 10:15N 36°36' W 010°09'1318.7
2016-May-02 09:33N 36°31' W 009°54'21718.9
2016-May-01 22:03N 35°59' W 005°27'917.8
2016-May-01 21:33N 36°02' W 005°17'81818.8
2016-Apr-30 02:09N 37°16' E 011°39'6618.4
2016-Apr-29 22:34N 36°51' E 012°55'1918.5
2016-Apr-29 21:31N 36°45' E 013°18'1818.7
2016-Apr-29 20:34N 36°41' E 013°39'1918.6
2016-Apr-29 19:33N 36°35' E 014°02'1818.3
2016-Apr-29 18:34N 36°29' E 014°23'1918.6
2016-Apr-29 17:33N 36°23' E 014°45'1818.3
2016-Apr-29 16:34N 36°18' E 015°07'1918.6
2016-Apr-29 15:32N 36°12' E 015°30'2018.7
2016-Apr-29 14:26N 36°07' E 015°54'22819.2
2016-Apr-29 02:33N 34°57' E 020°21'2019.5
2016-Apr-29 01:33N 34°50' E 020°43'1919.2
2016-Apr-29 00:33N 34°45' E 021°06'2019.3
2016-Apr-28 23:31N 34°38' E 021°29'1819.2
2016-Apr-28 22:33N 34°33' E 021°50'3818.7
2016-Apr-28 20:33N 34°21' E 022°34'1818.5
2016-Apr-28 19:33N 34°16' E 022°55'1918.9
2016-Apr-28 18:33N 34°10' E 023°17'9619.1
2016-Apr-28 13:33N 33°41' E 025°06'2418.4
2016-Apr-28 12:14N 33°33' E 025°34'1218.2
2016-Apr-28 11:33N 33°30' E 025°48'1818.4
2016-Apr-28 10:33N 33°24' E 026°09'  
Track history (hours):
 
Tides and Currents Weather Stations Pressure Air Temp Water Temp Dewpoint Dewpoint Depression Visibility Wind Speed Wind Dir Waves Ship Positions

Nyk Olympus

Last reported at 2016-May-02 12:33 UTC. Time now 2016-May-02 12:33 UTC.
Position N 36°52' W 010°59'.

Length 335 m; draft 11.8 m.

Type: Other ship. MMSI: 372478000.

Date/timePositionNaut miles runAvg speedWind from/ knotsBaromVisibWave heightAir tempDewpointWater temp
2016-May-02 12:33N 36°52' W 010°59'2018.7
2016-May-02 11:28N 36°44' W 010°35'2318.9
2016-May-02 10:15N 36°36' W 010°09'1318.7
2016-May-02 09:33N 36°31' W 009°54'21718.9
2016-May-01 22:03N 35°59' W 005°27'917.8
2016-May-01 21:33N 36°02' W 005°17'81818.8
2016-Apr-30 02:09N 37°16' E 011°39'6618.4
2016-Apr-29 22:34N 36°51' E 012°55'1918.5
2016-Apr-29 21:31N 36°45' E 013°18'1818.7
2016-Apr-29 20:34N 36°41' E 013°39'1918.6
2016-Apr-29 19:33N 36°35' E 014°02'1818.3
2016-Apr-29 18:34N 36°29' E 014°23'1918.6
2016-Apr-29 17:33N 36°23' E 014°45'1818.3
2016-Apr-29 16:34N 36°18' E 015°07'1918.6
2016-Apr-29 15:32N 36°12' E 015°30'2018.7
2016-Apr-29 14:26N 36°07' E 015°54'22819.2
2016-Apr-29 02:33N 34°57' E 020°21'2019.5
2016-Apr-29 01:33N 34°50' E 020°43'1919.2
2016-Apr-29 00:33N 34°45' E 021°06'2019.3
2016-Apr-28 23:31N 34°38' E 021°29'1819.2
2016-Apr-28 22:33N 34°33' E 021°50'3818.7
2016-Apr-28 20:33N 34°21' E 022°34'1818.5
2016-Apr-28 19:33N 34°16' E 022°55'1918.9
2016-Apr-28 18:33N 34°10' E 023°17'9619.1
2016-Apr-28 13:33N 33°41' E 025°06'2418.4
2016-Apr-28 12:14N 33°33' E 025°34'1218.2
2016-Apr-28 11:33N 33°30' E 025°48'1818.4
2016-Apr-28 10:33N 33°24' E 026°09'  

Dump ship's entire track history